Huvudsida
METAR-TAF:

METAR-TAF

Flygplatser :

Kuusamo flygplats

Kuusamo, Finland

latitud: 65-58N, longitud: 029-11E, höjd: 262 m

Aktuellt väderrapport

Denna rapport gjordes för 11 minuter sedan, klockan 04:50 UTC
Vind 7 kt från nordost, varierande mellan nord och ost/nordost
Temperatur -3°C
Fuktighet 93%
Tryck 983 hPa
Sikt: 3500 m
Spridda moln på en höjd av 700 ft
Mulet på en höjd av 1800 ft
lätt snö

METAR: EFKS 190450Z AUTO 04007KT 360V070 3500 -SN SCT007 OVC018 M03/M04 Q0983

Tid: 07:01 (05:01 UTC)

Väderprognos

Denna rapport gjordes för 8 timmar och 32 minuter sedan, klockan 20:29 UTC
Prognos gäller från 18 kl. 21 UTC till 18 kl. 23 UTC
Vind 7 kt från syd
Sikt 10 km eller mer
Mulet på en höjd av 700 ft
Temporärt
från 18 kl. 21 UTC till 18 kl. 23 UTC
Sikt: 4500 m
Brutna moln på en höjd av 400 ft
(lätt) underkylt, duggregn, snö

TAF: EFKS 182029Z 1821/1823 19007KT 9999 OVC007 TEMPO 1821/1823 4500 -FZDZSN BKN004

Aktuella väderrapporter och prognoser från 4000 flygplatser (METAR- och TAF-rapporter).

De tillgängliga stationerna syns som gula och röda prickar på kartan.

För musen över prickarna för att se namnen på stationerna.

Klicka sedan för att få väderrapporter och prognoser.

För att ändra kartan: Klicka på de gröna knapparna med ett svart kors på för att zooma in; den gröna knappen med ett streck på för att zooma ut; eller på de gröna pilarna för angränsande kartor.


METAR-TAF: